createdAt,value
2023-04-28T00:00:27.645Z,100400.38
2023-04-28T00:02:54.213Z,100398.13
2023-04-28T00:05:23.091Z,100382.09
2023-04-28T00:07:52.207Z,100370.31
2023-04-28T00:10:18.570Z,100365.81
2023-04-28T00:12:44.962Z,100361.34
2023-04-28T00:15:11.492Z,100360.09
2023-04-28T00:17:38.014Z,100368.06
2023-04-28T00:20:05.402Z,100356.75
2023-04-28T00:22:31.822Z,100351.03
2023-04-28T00:24:58.290Z,100354.72
2023-04-28T00:27:24.640Z,100343.09
2023-04-28T00:29:51.132Z,100342.25
2023-04-28T00:32:17.555Z,100345.16
2023-04-28T00:34:44.010Z,100338.06
2023-04-28T00:37:10.556Z,100331.16
2023-04-28T00:39:37.361Z,100340.81
2023-04-28T00:42:06.229Z,100334.47
2023-04-28T00:44:35.223Z,100320.72
2023-04-28T00:47:01.618Z,100316.34
2023-04-28T00:49:28.005Z,100319.06
2023-04-28T00:51:57.673Z,100322.38
2023-04-28T00:54:26.316Z,100321.13
2023-04-28T00:56:54.309Z,100314.16
2023-04-28T00:59:20.789Z,100314.47
2023-04-28T01:01:47.492Z,100305.34
2023-04-28T01:04:14.154Z,100302.66
2023-04-28T01:06:42.387Z,100298.88
2023-04-28T01:09:08.844Z,100292.03
2023-04-28T01:11:35.311Z,100283.53
2023-04-28T01:14:06.732Z,100282.38
2023-04-28T01:16:33.974Z,100278.50
2023-04-28T01:19:00.992Z,100282.56
2023-04-28T01:21:32.681Z,100281.81
2023-04-28T01:24:04.135Z,100280.31
2023-04-28T01:26:32.820Z,100266.66
2023-04-28T01:29:00.148Z,100265.25
2023-04-28T01:31:30.940Z,100262.31
2023-04-28T01:33:57.838Z,100268.84
2023-04-28T01:36:26.252Z,100276.13
2023-04-28T01:38:55.089Z,100282.44
2023-04-28T01:41:22.334Z,100286.44
2023-04-28T01:43:48.853Z,100281.91
2023-04-28T01:46:15.445Z,100281.59
2023-04-28T01:48:41.861Z,100277.81
2023-04-28T01:51:08.364Z,100273.88
2023-04-28T01:53:34.709Z,100268.28
2023-04-28T01:56:01.249Z,100262.56
2023-04-28T01:58:27.788Z,100267.25
2023-04-28T02:00:54.149Z,100271.88
2023-04-28T02:03:20.759Z,100274.06
2023-04-28T02:05:47.402Z,100278.72
2023-04-28T02:08:13.816Z,100276.34
2023-04-28T02:10:40.293Z,100285.31
2023-04-28T02:13:06.746Z,100282.03
2023-04-28T02:15:33.172Z,100279.09
2023-04-28T02:18:01.913Z,100276.19
2023-04-28T02:20:28.502Z,100281.91
2023-04-28T02:22:57.431Z,100279.00
2023-04-28T02:25:26.261Z,100277.56
2023-04-28T02:27:52.733Z,100272.09
2023-04-28T02:30:19.136Z,100270.16
2023-04-28T02:32:45.628Z,100259.44
2023-04-28T02:35:12.350Z,100267.81
2023-04-28T02:37:38.810Z,100272.94
2023-04-28T02:40:08.445Z,100254.53
2023-04-28T02:42:34.903Z,100268.09
2023-04-28T02:45:03.784Z,100261.72
2023-04-28T02:47:34.948Z,100259.53
2023-04-28T02:50:03.921Z,100264.72
2023-04-28T02:52:30.543Z,100266.06
2023-04-28T02:54:57.763Z,100259.16
2023-04-28T02:57:24.436Z,100264.66
2023-04-28T02:59:50.914Z,100267.09
2023-04-28T03:02:17.319Z,100255.53
2023-04-28T03:04:46.208Z,100259.53
2023-04-28T03:07:12.586Z,100252.38
2023-04-28T03:09:40.073Z,100248.34
2023-04-28T03:12:07.599Z,100237.44
2023-04-28T03:14:36.338Z,100242.63
2023-04-28T03:17:02.836Z,100237.84
2023-04-28T03:19:29.249Z,100237.03
2023-04-28T03:21:55.653Z,100224.41
2023-04-28T03:24:24.442Z,100219.44
2023-04-28T03:26:51.790Z,100227.59
2023-04-28T03:29:21.025Z,100232.63
2023-04-28T03:31:47.365Z,100225.09
2023-04-28T03:34:16.177Z,100219.75
2023-04-28T03:36:42.848Z,100225.47
2023-04-28T03:39:09.889Z,100207.88
2023-04-28T03:41:36.453Z,100209.22
2023-04-28T03:44:02.988Z,100213.81
2023-04-28T03:46:29.671Z,100214.84
2023-04-28T03:48:56.221Z,100207.41
2023-04-28T03:51:22.665Z,100208.56
2023-04-28T03:53:49.080Z,100212.50
2023-04-28T03:56:15.519Z,100213.56
2023-04-28T03:58:41.873Z,100222.03
2023-04-28T04:01:08.326Z,100237.56
2023-04-28T04:03:34.996Z,100236.16
2023-04-28T04:06:02.182Z,100238.66
2023-04-28T04:08:28.916Z,100236.03
2023-04-28T04:10:55.902Z,100228.97
2023-04-28T04:13:22.780Z,100230.50
2023-04-28T04:15:50.438Z,100225.34
2023-04-28T04:18:17.009Z,100234.50
2023-04-28T04:20:43.535Z,100223.88
2023-04-28T04:23:09.986Z,100228.16
2023-04-28T04:25:36.430Z,100222.63
2023-04-28T04:28:05.171Z,100215.94
2023-04-28T04:30:31.608Z,100210.69
2023-04-28T04:32:58.045Z,100204.16
2023-04-28T04:35:27.029Z,100195.44
2023-04-28T04:37:53.740Z,100199.16
2023-04-28T04:40:20.300Z,100199.97
2023-04-28T04:42:46.701Z,100198.91
2023-04-28T04:45:13.166Z,100200.22
2023-04-28T04:47:40.644Z,100200.44
2023-04-28T04:50:07.839Z,100201.00
2023-04-28T04:52:34.242Z,100206.66
2023-04-28T04:55:01.323Z,100215.13
2023-04-28T04:57:27.775Z,100212.13
2023-04-28T04:59:56.607Z,100206.16
2023-04-28T05:02:23.202Z,100208.19
2023-04-28T05:04:49.782Z,100207.75
2023-04-28T05:07:16.265Z,100206.00
2023-04-28T05:09:42.677Z,100205.41
2023-04-28T05:12:09.219Z,100214.56
2023-04-28T05:14:36.040Z,100216.94
2023-04-28T05:17:02.840Z,100221.03
2023-04-28T05:19:29.480Z,100227.53
2023-04-28T05:21:55.915Z,100230.47
2023-04-28T05:24:25.271Z,100219.91
2023-04-28T05:26:54.274Z,100218.88
2023-04-28T05:29:21.919Z,100211.25
2023-04-28T05:31:48.602Z,100217.53
2023-04-28T05:34:15.194Z,100218.66
2023-04-28T05:36:44.168Z,100214.53
2023-04-28T05:39:11.115Z,100227.03
2023-04-28T05:41:37.513Z,100227.38
2023-04-28T05:44:06.210Z,100229.88
2023-04-28T05:46:32.869Z,100215.94
2023-04-28T05:48:59.344Z,100212.88
2023-04-28T05:51:27.090Z,100200.19
2023-04-28T05:53:55.864Z,100206.78
2023-04-28T05:56:24.768Z,100204.16
2023-04-28T05:58:51.334Z,100201.97
2023-04-28T06:01:20.812Z,100202.03
2023-04-28T06:03:47.417Z,100203.84
2023-04-28T06:06:14.194Z,100199.66
2023-04-28T06:08:40.622Z,100205.09
2023-04-28T06:11:11.830Z,100199.72
2023-04-28T06:13:38.365Z,100201.91
2023-04-28T06:16:05.669Z,100213.38
2023-04-28T06:18:34.782Z,100227.03
2023-04-28T06:21:01.862Z,100228.78
2023-04-28T06:23:28.269Z,100230.28
2023-04-28T06:25:55.019Z,100230.50
2023-04-28T06:28:21.460Z,100238.66
2023-04-28T06:30:47.976Z,100248.53
2023-04-28T06:33:14.373Z,100252.84
2023-04-28T06:35:41.123Z,100246.31
2023-04-28T06:38:08.013Z,100245.56
2023-04-28T06:40:34.486Z,100231.53
2023-04-28T06:43:00.923Z,100231.53
2023-04-28T06:45:27.592Z,100240.47
2023-04-28T06:47:55.827Z,100220.88
2023-04-28T06:50:23.556Z,100220.25
2023-04-28T06:52:49.954Z,100224.72
2023-04-28T06:55:20.999Z,100217.38
2023-04-28T06:57:47.594Z,100221.25
2023-04-28T07:00:19.415Z,100219.56
2023-04-28T07:02:46.032Z,100217.81
2023-04-28T07:05:14.087Z,100215.59
2023-04-28T07:07:42.086Z,100216.25
2023-04-28T07:10:11.259Z,100220.69
2023-04-28T07:12:37.688Z,100214.09
2023-04-28T07:15:04.379Z,100223.75
2023-04-28T07:17:33.390Z,100229.66
2023-04-28T07:19:59.842Z,100215.47
2023-04-28T07:22:26.708Z,100227.47
2023-04-28T07:24:55.813Z,100220.06
2023-04-28T07:27:22.199Z,100229.50
2023-04-28T07:29:53.559Z,100223.75
2023-04-28T07:32:20.076Z,100218.28
2023-04-28T07:34:46.638Z,100221.44
2023-04-28T07:37:13.117Z,100236.50
2023-04-28T07:39:41.972Z,100223.44
2023-04-28T07:42:10.945Z,100225.03
2023-04-28T07:44:37.530Z,100225.22
2023-04-28T07:47:04.096Z,100212.50
2023-04-28T07:49:31.980Z,100206.97
2023-04-28T07:52:00.693Z,100210.84
2023-04-28T07:54:29.506Z,100201.63
2023-04-28T07:56:58.002Z,100210.97
2023-04-28T07:59:24.509Z,100211.19
2023-04-28T08:01:50.899Z,100209.88
2023-04-28T08:04:17.451Z,100216.16
2023-04-28T08:06:44.240Z,100205.63
2023-04-28T08:09:10.664Z,100203.38
2023-04-28T08:11:37.212Z,100205.66
2023-04-28T08:14:03.928Z,100202.41
2023-04-28T08:16:31.178Z,100200.84
2023-04-28T08:18:58.736Z,100195.75
2023-04-28T08:21:25.598Z,100202.31
2023-04-28T08:23:52.060Z,100194.47
2023-04-28T08:26:18.518Z,100192.28
2023-04-28T08:28:45.001Z,100199.19
2023-04-28T08:31:11.403Z,100188.03
2023-04-28T08:33:37.791Z,100188.66
2023-04-28T08:36:05.206Z,100203.53
2023-04-28T08:38:34.236Z,100216.66
2023-04-28T08:41:03.840Z,100203.63
2023-04-28T08:43:33.535Z,100212.50
2023-04-28T08:46:05.444Z,100220.41
2023-04-28T08:48:39.017Z,100213.03
2023-04-28T08:51:06.923Z,100219.53
2023-04-28T08:53:59.242Z,100208.94
2023-04-28T08:56:26.306Z,100215.31
2023-04-28T08:58:53.899Z,100221.59
2023-04-28T09:01:20.386Z,100214.56
2023-04-28T09:03:48.005Z,100206.44
2023-04-28T09:06:17.195Z,100214.00
2023-04-28T09:08:45.776Z,100203.84
2023-04-28T09:11:13.577Z,100210.56
2023-04-28T09:13:42.775Z,100214.28
2023-04-28T09:16:09.573Z,100208.97
2023-04-28T09:18:38.504Z,100210.59
2023-04-28T09:21:10.943Z,100206.75
2023-04-28T09:23:50.870Z,100207.34
2023-04-28T09:26:17.477Z,100214.69
2023-04-28T09:28:43.946Z,100208.16
2023-04-28T09:31:28.214Z,100212.84
2023-04-28T09:33:58.602Z,100209.78
2023-04-28T09:36:32.618Z,100212.66
2023-04-28T09:39:01.815Z,100210.41
2023-04-28T09:41:38.754Z,100211.00
2023-04-28T09:44:14.459Z,100204.28
2023-04-28T09:46:42.297Z,100202.00
2023-04-28T09:49:14.239Z,100201.59
2023-04-28T09:51:40.944Z,100198.28
2023-04-28T09:54:07.779Z,100197.75
2023-04-28T09:56:40.883Z,100200.91
2023-04-28T09:59:09.490Z,100203.97
2023-04-28T10:01:41.325Z,100202.25
2023-04-28T10:04:09.785Z,100204.28
2023-04-28T10:06:36.906Z,100203.09
2023-04-28T10:09:07.038Z,100198.84
2023-04-28T10:11:33.969Z,100202.97
2023-04-28T10:14:00.441Z,100204.59
2023-04-28T10:16:31.536Z,100212.41
2023-04-28T10:19:02.024Z,100202.22
2023-04-28T10:21:30.175Z,100208.16
2023-04-28T10:24:22.477Z,100211.06
2023-04-28T10:26:55.605Z,100211.00
2023-04-28T10:29:28.028Z,100203.47
2023-04-28T10:32:16.388Z,100204.66
2023-04-28T10:34:43.236Z,100211.22
2023-04-28T10:37:09.692Z,100209.00
2023-04-28T10:39:36.064Z,100211.03
2023-04-28T10:42:02.921Z,100213.31
2023-04-28T10:44:32.146Z,100207.97
2023-04-28T10:47:06.938Z,100204.84
2023-04-28T10:49:58.444Z,100198.91
2023-04-28T10:52:37.906Z,100189.34
2023-04-28T10:55:36.131Z,100191.34
2023-04-28T10:58:20.438Z,100185.72
2023-04-28T11:00:53.757Z,100189.00
2023-04-28T11:03:50.336Z,100179.06
2023-04-28T11:06:22.760Z,100172.09
2023-04-28T11:08:51.511Z,100181.22
2023-04-28T11:11:21.108Z,100179.31
2023-04-28T11:13:48.919Z,100188.84
2023-04-28T11:16:18.162Z,100186.78
2023-04-28T11:18:59.410Z,100182.00
2023-04-28T11:21:28.299Z,100186.41
2023-04-28T11:23:57.537Z,100183.63
2023-04-28T11:26:27.177Z,100179.31
2023-04-28T11:28:56.027Z,100176.97
2023-04-28T11:31:24.631Z,100188.13
2023-04-28T11:33:58.711Z,100184.88
2023-04-28T11:36:36.417Z,100177.84
2023-04-28T11:39:08.159Z,100182.59
2023-04-28T11:41:39.624Z,100186.19
2023-04-28T11:44:16.045Z,100185.81
2023-04-28T11:46:50.649Z,100184.06
2023-04-28T11:49:18.303Z,100188.28
2023-04-28T11:51:46.996Z,100189.16
2023-04-28T11:54:14.954Z,100177.34
2023-04-28T11:56:42.741Z,100173.00
2023-04-28T11:59:11.333Z,100167.03
2023-04-28T12:01:52.511Z,100170.84
2023-04-28T12:04:32.072Z,100173.00
2023-04-28T12:07:06.406Z,100177.66
2023-04-28T12:09:37.117Z,100170.66
2023-04-28T12:12:06.539Z,100175.03
2023-04-28T12:14:56.013Z,100180.22
2023-04-28T12:17:37.826Z,100172.69
2023-04-28T12:20:08.274Z,100181.97
2023-04-28T12:22:46.799Z,100186.41
2023-04-28T12:25:16.444Z,100192.78
2023-04-28T12:28:00.593Z,100195.19
2023-04-28T12:30:28.528Z,100187.19
2023-04-28T12:32:58.546Z,100195.91
2023-04-28T12:35:28.696Z,100183.09
2023-04-28T12:37:56.907Z,100184.09
2023-04-28T12:40:26.092Z,100178.59
2023-04-28T12:42:52.654Z,100181.63
2023-04-28T12:45:19.212Z,100179.16
2023-04-28T12:47:46.125Z,100177.63
2023-04-28T12:50:12.680Z,100168.88
2023-04-28T12:52:39.089Z,100166.13
2023-04-28T12:55:06.083Z,100166.66
2023-04-28T12:57:32.592Z,100172.34
2023-04-28T13:00:01.901Z,100169.06
2023-04-28T13:02:28.504Z,100158.25
2023-04-28T13:04:55.209Z,100164.56
2023-04-28T13:07:22.228Z,100161.28
2023-04-28T13:09:48.842Z,100146.53
2023-04-28T13:12:15.566Z,100151.53
2023-04-28T13:14:42.307Z,100149.06
2023-04-28T13:17:10.056Z,100141.72
2023-04-28T13:19:39.355Z,100139.09
2023-04-28T13:22:06.773Z,100140.25
2023-04-28T13:24:36.242Z,100133.66
2023-04-28T13:27:04.111Z,100130.28
2023-04-28T13:29:32.906Z,100125.09
2023-04-28T13:31:59.436Z,100126.63
2023-04-28T13:34:25.826Z,100120.00
2023-04-28T13:36:54.308Z,100119.66
2023-04-28T13:39:22.077Z,100118.16
2023-04-28T13:41:51.840Z,100105.28
2023-04-28T13:44:18.262Z,100106.00
2023-04-28T13:46:44.754Z,100099.59
2023-04-28T13:49:11.316Z,100097.53
2023-04-28T13:51:38.832Z,100107.22
2023-04-28T13:54:08.258Z,100099.47
2023-04-28T13:56:38.322Z,100095.00
2023-04-28T13:59:04.750Z,100097.41
2023-04-28T14:01:31.479Z,100093.31
2023-04-28T14:03:58.455Z,100089.88
2023-04-28T14:06:26.093Z,100087.53
2023-04-28T14:08:54.987Z,100067.72
2023-04-28T14:11:21.602Z,100061.47
2023-04-28T14:13:48.125Z,100071.56
2023-04-28T14:16:14.764Z,100076.41
2023-04-28T14:18:41.266Z,100072.59
2023-04-28T14:21:08.623Z,100071.00
2023-04-28T14:23:35.571Z,100060.94
2023-04-28T14:26:02.145Z,100070.53
2023-04-28T14:28:28.651Z,100068.81
2023-04-28T14:30:57.532Z,100064.94
2023-04-28T14:33:26.893Z,100058.47
2023-04-28T14:35:54.385Z,100062.63
2023-04-28T14:38:20.990Z,100062.53
2023-04-28T14:40:47.533Z,100054.91
2023-04-28T14:43:16.605Z,100049.22
2023-04-28T14:45:43.154Z,100051.69
2023-04-28T14:48:13.303Z,100054.91
2023-04-28T14:50:42.660Z,100055.94
2023-04-28T14:53:11.703Z,100064.53
2023-04-28T14:55:38.292Z,100074.22
2023-04-28T14:58:04.766Z,100090.97
2023-04-28T15:00:33.378Z,100093.06
2023-04-28T15:03:02.467Z,100076.56
2023-04-28T15:05:29.111Z,100096.66
2023-04-28T15:07:55.829Z,100110.88
2023-04-28T15:10:22.400Z,63967.63
2023-04-28T15:12:51.154Z,100163.38
2023-04-28T15:15:17.674Z,63967.63
2023-04-28T15:17:45.288Z,63967.63
2023-04-28T15:20:11.879Z,63967.63
2023-04-28T15:22:38.404Z,63967.63
2023-04-28T15:25:05.247Z,63967.63
2023-04-28T15:27:32.151Z,63967.63
2023-04-28T15:29:58.701Z,63967.63
2023-04-28T15:32:25.257Z,63967.63
2023-04-28T16:23:58.626Z,100032.19
2023-04-28T16:26:25.106Z,100049.13
2023-04-28T16:28:51.471Z,100048.69
2023-04-28T16:31:18.139Z,100045.16
2023-04-28T16:33:44.529Z,100034.41
2023-04-28T16:36:11.479Z,100030.03
2023-04-28T16:38:38.032Z,100023.34
2023-04-28T16:41:04.608Z,100020.00
2023-04-28T16:43:32.795Z,100018.03
2023-04-28T16:45:59.685Z,100023.34
2023-04-28T16:48:26.838Z,100014.41
2023-04-28T16:50:53.373Z,100010.41
2023-04-28T16:53:19.862Z,100018.03
2023-04-28T16:55:46.469Z,100023.88
2023-04-28T16:58:15.016Z,100026.97
2023-04-28T17:00:41.468Z,100024.72
2023-04-28T17:03:08.169Z,100029.47
2023-04-28T17:05:35.049Z,100028.63
2023-04-28T17:08:02.483Z,100037.25
2023-04-28T17:10:29.239Z,100021.69
2023-04-28T17:12:58.245Z,100022.34
2023-04-28T17:15:24.981Z,100020.09
2023-04-28T17:17:52.471Z,100019.41
2023-04-28T17:20:20.129Z,100018.78
2023-04-28T17:22:47.738Z,100009.34
2023-04-28T17:25:14.269Z,100015.19
2023-04-28T17:27:40.750Z,100017.22
2023-04-28T17:30:11.267Z,100005.63
2023-04-28T17:32:37.877Z,100004.28
2023-04-28T17:35:05.021Z,99994.13
2023-04-28T17:37:37.278Z,99995.09
2023-04-28T17:40:04.608Z,99999.88
2023-04-28T17:42:31.850Z,99994.88
2023-04-28T17:44:58.603Z,99996.00
2023-04-28T17:47:27.814Z,99988.81
2023-04-28T17:49:54.453Z,99989.44
2023-04-28T17:52:20.980Z,99985.28
2023-04-28T17:54:50.693Z,99986.56
2023-04-28T17:57:18.334Z,99992.31
2023-04-28T17:59:46.967Z,99995.09
2023-04-28T18:02:13.536Z,100001.25
2023-04-28T18:04:40.228Z,100000.88
2023-04-28T18:07:07.757Z,100003.22
2023-04-28T18:09:34.379Z,100003.53
2023-04-28T18:12:04.764Z,100000.19
2023-04-28T18:14:31.647Z,100007.72
2023-04-28T18:17:00.777Z,99994.13
2023-04-28T18:19:30.530Z,100005.69
2023-04-28T18:21:58.154Z,100003.28
2023-04-28T18:24:27.357Z,99996.78
2023-04-28T18:26:56.287Z,100003.00
2023-04-28T18:29:22.826Z,100004.56
2023-04-28T18:31:49.333Z,99997.69
2023-04-28T18:34:15.861Z,100005.63
2023-04-28T18:36:42.335Z,99996.72
2023-04-28T18:39:09.920Z,99999.94
2023-04-28T18:41:40.010Z,99999.66
2023-04-28T18:44:08.592Z,100001.69
2023-04-28T18:46:37.842Z,99999.72
2023-04-28T18:49:05.440Z,100002.84
2023-04-28T18:51:32.124Z,100004.13
2023-04-28T18:53:59.086Z,100008.88
2023-04-28T18:56:25.639Z,99999.06
2023-04-28T18:58:54.397Z,100006.91
2023-04-28T19:01:20.813Z,100006.38
2023-04-28T19:03:47.405Z,100004.19
2023-04-28T19:06:14.929Z,100009.22
2023-04-28T19:08:42.593Z,100009.84
2023-04-28T19:11:09.593Z,100005.16
2023-04-28T19:13:36.902Z,100012.69
2023-04-28T19:16:06.460Z,100015.09
2023-04-28T19:18:33.323Z,100024.47
2023-04-28T19:21:00.799Z,100036.00
2023-04-28T19:23:27.710Z,100033.38
2023-04-28T19:25:56.290Z,100029.66
2023-04-28T19:28:23.125Z,100034.28
2023-04-28T19:30:50.138Z,100046.81
2023-04-28T19:33:17.632Z,100036.66
2023-04-28T19:35:44.259Z,100039.59
2023-04-28T19:38:11.729Z,100046.28
2023-04-28T19:40:39.143Z,100043.22
2023-04-28T19:43:06.189Z,100055.22
2023-04-28T19:45:34.704Z,100054.13
2023-04-28T19:48:01.818Z,100058.69
2023-04-28T19:50:28.353Z,100058.44
2023-04-28T19:52:59.795Z,100057.19
2023-04-28T19:55:27.235Z,100067.22
2023-04-28T19:57:55.832Z,100067.22
2023-04-28T20:00:24.305Z,100064.72
2023-04-28T20:02:51.469Z,100060.81
2023-04-28T20:05:20.351Z,100070.00
2023-04-28T20:07:47.706Z,100067.53
2023-04-28T20:10:14.238Z,100069.22
2023-04-28T20:12:43.812Z,100062.81
2023-04-28T20:15:13.735Z,100064.78
2023-04-28T20:17:42.527Z,100061.44
2023-04-28T20:20:11.949Z,100057.44
2023-04-28T20:22:40.866Z,100063.69
2023-04-28T20:25:10.238Z,100056.00
2023-04-28T20:27:39.393Z,100060.91
2023-04-28T20:30:07.021Z,100062.56
2023-04-28T20:32:33.623Z,100059.22
2023-04-28T20:35:02.888Z,100055.91
2023-04-28T20:37:31.971Z,100059.81
2023-04-28T20:39:58.381Z,100056.19
2023-04-28T20:42:25.136Z,100052.97
2023-04-28T20:44:53.718Z,100046.16
2023-04-28T20:47:20.171Z,100046.31
2023-04-28T20:49:50.403Z,100046.75
2023-04-28T20:52:18.398Z,100038.13
2023-04-28T20:54:45.684Z,100043.81
2023-04-28T20:57:12.132Z,100047.56
2023-04-28T20:59:40.748Z,100042.97
2023-04-28T21:02:07.305Z,100049.78
2023-04-28T21:04:36.704Z,100051.75
2023-04-28T21:07:05.395Z,100062.03
2023-04-28T21:09:31.789Z,100059.22
2023-04-28T21:11:58.242Z,100059.50
2023-04-28T21:14:24.769Z,100058.13
2023-04-28T21:16:51.689Z,100053.41
2023-04-28T21:19:20.751Z,100063.41
2023-04-28T21:21:47.114Z,100063.97
2023-04-28T21:24:13.776Z,100062.56
2023-04-28T21:26:41.689Z,100068.81
2023-04-28T21:29:12.691Z,100062.69
2023-04-28T21:31:39.199Z,100068.38
2023-04-28T21:34:06.509Z,100056.44
2023-04-28T21:36:34.271Z,100070.34
2023-04-28T21:39:05.039Z,100075.91
2023-04-28T21:41:31.912Z,100082.00
2023-04-28T21:43:59.334Z,100085.75
2023-04-28T21:46:25.875Z,100091.19
2023-04-28T21:48:55.200Z,100094.78
2023-04-28T21:51:21.742Z,100097.16
2023-04-28T21:53:50.475Z,100099.50
2023-04-28T21:56:17.420Z,100107.28
2023-04-28T21:58:43.864Z,100097.25
2023-04-28T22:01:16.254Z,100100.44
2023-04-28T22:03:43.271Z,100096.69
2023-04-28T22:06:10.208Z,100095.28
2023-04-28T22:08:37.001Z,100095.28
2023-04-28T22:11:03.941Z,100097.72
2023-04-28T22:13:33.347Z,100095.59
2023-04-28T22:16:00.063Z,100099.63
2023-04-28T22:18:28.990Z,100097.53
2023-04-28T22:20:55.525Z,100104.28
2023-04-28T22:23:24.876Z,100104.41
2023-04-28T22:25:51.351Z,100097.75
2023-04-28T22:28:18.411Z,100099.22
2023-04-28T22:30:46.770Z,100108.38
2023-04-28T22:33:13.223Z,100111.53
2023-04-28T22:35:39.672Z,100115.13
2023-04-28T22:38:06.542Z,100121.13
2023-04-28T22:40:34.991Z,100116.38
2023-04-28T22:43:06.316Z,100114.81
2023-04-28T22:45:32.751Z,100112.31
2023-04-28T22:47:59.229Z,100121.31
2023-04-28T22:50:28.992Z,100121.72
2023-04-28T22:52:55.382Z,100122.94
2023-04-28T22:55:21.932Z,100117.91
2023-04-28T22:57:48.484Z,100122.94
2023-04-28T23:00:17.762Z,100123.44
2023-04-28T23:02:45.373Z,100125.50
2023-04-28T23:05:11.999Z,100117.84
2023-04-28T23:07:38.516Z,100116.31
2023-04-28T23:10:06.718Z,100125.53
2023-04-28T23:12:33.702Z,100119.69
2023-04-28T23:15:00.620Z,100123.56
2023-04-28T23:17:27.176Z,100121.28
2023-04-28T23:19:53.640Z,100122.50
2023-04-28T23:22:20.400Z,100118.47
2023-04-28T23:24:47.258Z,100115.25
2023-04-28T23:27:13.726Z,100116.44
2023-04-28T23:29:40.170Z,100115.38
2023-04-28T23:32:06.832Z,100119.47
2023-04-28T23:34:33.251Z,100119.47
2023-04-28T23:37:04.204Z,100124.16
2023-04-28T23:39:33.534Z,100132.03
2023-04-28T23:41:59.956Z,100131.78
2023-04-28T23:44:26.424Z,100129.41
2023-04-28T23:46:54.727Z,100130.00
2023-04-28T23:49:24.603Z,100128.19
2023-04-28T23:51:51.026Z,100125.56
2023-04-28T23:54:17.515Z,100133.94
2023-04-28T23:56:47.266Z,100129.59
2023-04-28T23:59:13.724Z,100132.25
